sensor_id;sensor_type;location;lat;lon;timestamp;P1;durP1;ratioP1;P2;durP2;ratioP2
16662;SDS011;8445;51.270;9.434;2024-02-15T00:00:15;11.48;;;10.05;;
16662;SDS011;8445;51.270;9.434;2024-02-15T00:02:42;10.52;;;9.45;;
16662;SDS011;8445;51.270;9.434;2024-02-15T00:05:12;10.07;;;9.27;;
16662;SDS011;8445;51.270;9.434;2024-02-15T00:07:41;10.05;;;9.05;;
16662;SDS011;8445;51.270;9.434;2024-02-15T00:10:08;11.13;;;9.38;;
16662;SDS011;8445;51.270;9.434;2024-02-15T00:12:34;10.65;;;9.70;;
16662;SDS011;8445;51.270;9.434;2024-02-15T00:15:00;11.07;;;10.10;;
16662;SDS011;8445;51.270;9.434;2024-02-15T00:17:30;10.55;;;9.75;;
16662;SDS011;8445;51.270;9.434;2024-02-15T00:19:56;10.48;;;9.50;;
16662;SDS011;8445;51.270;9.434;2024-02-15T00:22:21;11.02;;;10.00;;
16662;SDS011;8445;51.270;9.434;2024-02-15T00:24:47;10.88;;;9.98;;
16662;SDS011;8445;51.270;9.434;2024-02-15T00:27:16;10.15;;;9.30;;
16662;SDS011;8445;51.270;9.434;2024-02-15T00:29:42;10.30;;;9.50;;
16662;SDS011;8445;51.270;9.434;2024-02-15T00:32:09;9.60;;;8.90;;
16662;SDS011;8445;51.270;9.434;2024-02-15T00:34:38;10.40;;;9.50;;
16662;SDS011;8445;51.270;9.434;2024-02-15T00:37:04;11.13;;;10.18;;
16662;SDS011;8445;51.270;9.434;2024-02-15T00:39:30;10.35;;;9.45;;
16662;SDS011;8445;51.270;9.434;2024-02-15T00:41:57;10.35;;;9.40;;
16662;SDS011;8445;51.270;9.434;2024-02-15T00:44:25;10.57;;;9.57;;
16662;SDS011;8445;51.270;9.434;2024-02-15T00:46:52;10.73;;;9.82;;
16662;SDS011;8445;51.270;9.434;2024-02-15T00:49:18;9.88;;;9.10;;
16662;SDS011;8445;51.270;9.434;2024-02-15T00:51:48;10.63;;;9.65;;
16662;SDS011;8445;51.270;9.434;2024-02-15T00:54:19;9.65;;;8.90;;
16662;SDS011;8445;51.270;9.434;2024-02-15T00:56:55;9.98;;;9.18;;
16662;SDS011;8445;51.270;9.434;2024-02-15T00:59:31;9.85;;;9.05;;
16662;SDS011;8445;51.270;9.434;2024-02-15T01:02:01;9.98;;;9.10;;
16662;SDS011;8445;51.270;9.434;2024-02-15T01:04:28;9.45;;;8.75;;
16662;SDS011;8445;51.270;9.434;2024-02-15T01:06:54;10.23;;;9.23;;
16662;SDS011;8445;51.270;9.434;2024-02-15T01:09:23;9.88;;;8.93;;
16662;SDS011;8445;51.270;9.434;2024-02-15T01:11:49;10.02;;;9.07;;
16662;SDS011;8445;51.270;9.434;2024-02-15T01:14:15;9.68;;;8.88;;
16662;SDS011;8445;51.270;9.434;2024-02-15T01:16:41;9.90;;;9.10;;
16662;SDS011;8445;51.270;9.434;2024-02-15T01:19:09;8.75;;;7.97;;
16662;SDS011;8445;51.270;9.434;2024-02-15T01:21:35;9.35;;;8.65;;
16662;SDS011;8445;51.270;9.434;2024-02-15T01:24:02;9.20;;;8.50;;
16662;SDS011;8445;51.270;9.434;2024-02-15T01:26:31;8.90;;;8.10;;
16662;SDS011;8445;51.270;9.434;2024-02-15T01:28:58;9.65;;;8.50;;
16662;SDS011;8445;51.270;9.434;2024-02-15T01:31:24;9.13;;;8.48;;
16662;SDS011;8445;51.270;9.434;2024-02-15T01:33:49;9.20;;;8.50;;
16662;SDS011;8445;51.270;9.434;2024-02-15T01:36:16;9.10;;;8.38;;
16662;SDS011;8445;51.270;9.434;2024-02-15T01:38:43;9.95;;;9.00;;
16662;SDS011;8445;51.270;9.434;2024-02-15T01:41:10;9.95;;;9.05;;
16662;SDS011;8445;51.270;9.434;2024-02-15T01:43:37;8.75;;;8.15;;
16662;SDS011;8445;51.270;9.434;2024-02-15T01:46:09;9.48;;;8.77;;
16662;SDS011;8445;51.270;9.434;2024-02-15T01:48:36;8.90;;;8.25;;
16662;SDS011;8445;51.270;9.434;2024-02-15T01:51:06;9.98;;;9.02;;
16662;SDS011;8445;51.270;9.434;2024-02-15T01:53:35;9.73;;;8.93;;
16662;SDS011;8445;51.270;9.434;2024-02-15T01:56:02;9.30;;;8.50;;
16662;SDS011;8445;51.270;9.434;2024-02-15T01:58:29;9.35;;;8.55;;
16662;SDS011;8445;51.270;9.434;2024-02-15T02:00:58;8.90;;;8.20;;
16662;SDS011;8445;51.270;9.434;2024-02-15T02:03:29;9.52;;;8.82;;
16662;SDS011;8445;51.270;9.434;2024-02-15T02:05:55;9.38;;;8.65;;
16662;SDS011;8445;51.270;9.434;2024-02-15T02:08:22;9.15;;;8.32;;
16662;SDS011;8445;51.270;9.434;2024-02-15T02:10:47;10.05;;;9.15;;
16662;SDS011;8445;51.270;9.434;2024-02-15T02:13:14;9.20;;;8.50;;
16662;SDS011;8445;51.270;9.434;2024-02-15T02:15:40;9.57;;;8.77;;
16662;SDS011;8445;51.270;9.434;2024-02-15T02:18:06;9.38;;;8.70;;
16662;SDS011;8445;51.270;9.434;2024-02-15T02:20:33;9.25;;;8.55;;
16662;SDS011;8445;51.270;9.434;2024-02-15T02:23:07;9.30;;;8.40;;
16662;SDS011;8445;51.270;9.434;2024-02-15T02:25:39;9.77;;;9.07;;
16662;SDS011;8445;51.270;9.434;2024-02-15T02:28:08;9.63;;;8.80;;
16662;SDS011;8445;51.270;9.434;2024-02-15T02:30:34;9.45;;;8.65;;
16662;SDS011;8445;51.270;9.434;2024-02-15T02:33:00;9.50;;;8.80;;
16662;SDS011;8445;51.270;9.434;2024-02-15T02:35:27;9.50;;;8.75;;
16662;SDS011;8445;51.270;9.434;2024-02-15T02:37:55;8.98;;;8.27;;
16662;SDS011;8445;51.270;9.434;2024-02-15T02:40:22;9.63;;;8.82;;
16662;SDS011;8445;51.270;9.434;2024-02-15T02:42:48;9.70;;;8.90;;
16662;SDS011;8445;51.270;9.434;2024-02-15T02:45:21;9.10;;;8.40;;
16662;SDS011;8445;51.270;9.434;2024-02-15T02:47:51;9.82;;;8.95;;
16662;SDS011;8445;51.270;9.434;2024-02-15T02:50:18;9.77;;;8.98;;
16662;SDS011;8445;51.270;9.434;2024-02-15T02:52:50;9.77;;;8.88;;
16662;SDS011;8445;51.270;9.434;2024-02-15T02:55:17;9.80;;;8.82;;
16662;SDS011;8445;51.270;9.434;2024-02-15T02:57:43;9.23;;;8.52;;
16662;SDS011;8445;51.270;9.434;2024-02-15T03:00:12;9.85;;;9.05;;
16662;SDS011;8445;51.270;9.434;2024-02-15T03:02:42;9.95;;;9.02;;
16662;SDS011;8445;51.270;9.434;2024-02-15T03:05:09;10.13;;;9.15;;
16662;SDS011;8445;51.270;9.434;2024-02-15T03:07:39;10.75;;;9.63;;
16662;SDS011;8445;51.270;9.434;2024-02-15T03:10:09;11.68;;;9.30;;
16662;SDS011;8445;51.270;9.434;2024-02-15T03:12:38;10.38;;;9.55;;
16662;SDS011;8445;51.270;9.434;2024-02-15T03:15:05;10.48;;;9.48;;
16662;SDS011;8445;51.270;9.434;2024-02-15T03:17:42;10.30;;;9.45;;
16662;SDS011;8445;51.270;9.434;2024-02-15T03:20:10;11.40;;;10.38;;
16662;SDS011;8445;51.270;9.434;2024-02-15T03:25:25;10.40;;;9.50;;
16662;SDS011;8445;51.270;9.434;2024-02-15T03:27:57;10.52;;;9.63;;
16662;SDS011;8445;51.270;9.434;2024-02-15T03:30:29;11.25;;;10.18;;
16662;SDS011;8445;51.270;9.434;2024-02-15T03:33:00;10.50;;;9.65;;
16662;SDS011;8445;51.270;9.434;2024-02-15T03:35:29;12.55;;;10.35;;
16662;SDS011;8445;51.270;9.434;2024-02-15T03:37:56;10.82;;;9.57;;
16662;SDS011;8445;51.270;9.434;2024-02-15T03:40:23;11.23;;;9.98;;
16662;SDS011;8445;51.270;9.434;2024-02-15T03:42:51;11.43;;;10.25;;
16662;SDS011;8445;51.270;9.434;2024-02-15T03:45:18;11.15;;;10.07;;
16662;SDS011;8445;51.270;9.434;2024-02-15T03:47:45;10.95;;;9.95;;
16662;SDS011;8445;51.270;9.434;2024-02-15T03:50:11;11.20;;;10.10;;
16662;SDS011;8445;51.270;9.434;2024-02-15T03:52:40;11.23;;;10.13;;
16662;SDS011;8445;51.270;9.434;2024-02-15T03:55:06;12.23;;;10.93;;
16662;SDS011;8445;51.270;9.434;2024-02-15T03:57:32;10.73;;;9.82;;
16662;SDS011;8445;51.270;9.434;2024-02-15T03:59:59;12.48;;;10.10;;
16662;SDS011;8445;51.270;9.434;2024-02-15T04:02:26;11.90;;;10.43;;
16662;SDS011;8445;51.270;9.434;2024-02-15T04:04:53;13.68;;;10.70;;
16662;SDS011;8445;51.270;9.434;2024-02-15T04:07:20;12.18;;;10.80;;
16662;SDS011;8445;51.270;9.434;2024-02-15T04:09:50;14.00;;;11.50;;
16662;SDS011;8445;51.270;9.434;2024-02-15T04:12:16;12.18;;;11.05;;
16662;SDS011;8445;51.270;9.434;2024-02-15T04:14:45;11.45;;;10.27;;
16662;SDS011;8445;51.270;9.434;2024-02-15T04:17:12;12.60;;;11.32;;
16662;SDS011;8445;51.270;9.434;2024-02-15T04:19:44;12.82;;;11.48;;
16662;SDS011;8445;51.270;9.434;2024-02-15T04:22:15;11.95;;;10.70;;
16662;SDS011;8445;51.270;9.434;2024-02-15T04:24:42;14.20;;;11.73;;
16662;SDS011;8445;51.270;9.434;2024-02-15T04:27:10;13.68;;;12.40;;
16662;SDS011;8445;51.270;9.434;2024-02-15T04:29:40;14.38;;;11.77;;
16662;SDS011;8445;51.270;9.434;2024-02-15T04:32:09;13.38;;;11.48;;
16662;SDS011;8445;51.270;9.434;2024-02-15T04:34:40;14.48;;;11.07;;
16662;SDS011;8445;51.270;9.434;2024-02-15T04:37:06;13.80;;;11.65;;
16662;SDS011;8445;51.270;9.434;2024-02-15T04:39:32;12.90;;;11.60;;
16662;SDS011;8445;51.270;9.434;2024-02-15T04:42:02;14.18;;;11.40;;
16662;SDS011;8445;51.270;9.434;2024-02-15T04:44:31;12.85;;;11.50;;
16662;SDS011;8445;51.270;9.434;2024-02-15T04:47:00;14.65;;;12.40;;
16662;SDS011;8445;51.270;9.434;2024-02-15T04:49:30;14.40;;;11.32;;
16662;SDS011;8445;51.270;9.434;2024-02-15T04:51:56;12.80;;;11.30;;
16662;SDS011;8445;51.270;9.434;2024-02-15T04:54:29;14.35;;;11.90;;
16662;SDS011;8445;51.270;9.434;2024-02-15T04:56:55;12.82;;;11.52;;
16662;SDS011;8445;51.270;9.434;2024-02-15T04:59:22;13.38;;;11.80;;
16662;SDS011;8445;51.270;9.434;2024-02-15T05:01:51;16.73;;;12.48;;
16662;SDS011;8445;51.270;9.434;2024-02-15T05:04:18;13.68;;;11.85;;
16662;SDS011;8445;51.270;9.434;2024-02-15T05:06:44;12.65;;;11.35;;
16662;SDS011;8445;51.270;9.434;2024-02-15T05:09:10;13.93;;;11.88;;
16662;SDS011;8445;51.270;9.434;2024-02-15T05:11:37;13.60;;;12.18;;
16662;SDS011;8445;51.270;9.434;2024-02-15T05:14:06;15.52;;;11.80;;
16662;SDS011;8445;51.270;9.434;2024-02-15T05:16:33;17.20;;;11.50;;
16662;SDS011;8445;51.270;9.434;2024-02-15T05:18:59;12.63;;;10.90;;
16662;SDS011;8445;51.270;9.434;2024-02-15T05:21:25;13.45;;;11.80;;
16662;SDS011;8445;51.270;9.434;2024-02-15T05:23:51;16.88;;;12.43;;
16662;SDS011;8445;51.270;9.434;2024-02-15T05:26:18;13.88;;;12.18;;
16662;SDS011;8445;51.270;9.434;2024-02-15T05:28:51;15.35;;;13.25;;
16662;SDS011;8445;51.270;9.434;2024-02-15T05:31:18;13.43;;;12.07;;
16662;SDS011;8445;51.270;9.434;2024-02-15T05:33:46;13.98;;;12.50;;
16662;SDS011;8445;51.270;9.434;2024-02-15T05:36:13;18.80;;;13.70;;
16662;SDS011;8445;51.270;9.434;2024-02-15T05:38:40;15.27;;;13.80;;
16662;SDS011;8445;51.270;9.434;2024-02-15T05:41:10;16.80;;;12.98;;
16662;SDS011;8445;51.270;9.434;2024-02-15T05:43:36;14.20;;;12.35;;
16662;SDS011;8445;51.270;9.434;2024-02-15T05:46:05;18.15;;;13.10;;
16662;SDS011;8445;51.270;9.434;2024-02-15T05:48:34;14.95;;;12.50;;
16662;SDS011;8445;51.270;9.434;2024-02-15T05:51:01;15.23;;;12.85;;
16662;SDS011;8445;51.270;9.434;2024-02-15T05:53:31;14.98;;;13.45;;
16662;SDS011;8445;51.270;9.434;2024-02-15T05:56:10;14.45;;;12.45;;
16662;SDS011;8445;51.270;9.434;2024-02-15T05:58:36;16.65;;;13.50;;
16662;SDS011;8445;51.270;9.434;2024-02-15T06:01:03;19.58;;;13.07;;
16662;SDS011;8445;51.270;9.434;2024-02-15T06:03:32;15.85;;;12.60;;
16662;SDS011;8445;51.270;9.434;2024-02-15T06:06:02;13.40;;;12.05;;
16662;SDS011;8445;51.270;9.434;2024-02-15T06:08:33;14.55;;;12.63;;
16662;SDS011;8445;51.270;9.434;2024-02-15T06:10:59;16.58;;;13.32;;
16662;SDS011;8445;51.270;9.434;2024-02-15T06:13:26;15.32;;;13.55;;
16662;SDS011;8445;51.270;9.434;2024-02-15T06:15:53;14.07;;;12.40;;
16662;SDS011;8445;51.270;9.434;2024-02-15T06:18:19;16.70;;;14.32;;
16662;SDS011;8445;51.270;9.434;2024-02-15T06:20:59;16.38;;;13.25;;
16662;SDS011;8445;51.270;9.434;2024-02-15T06:23:25;14.77;;;13.13;;
16662;SDS011;8445;51.270;9.434;2024-02-15T06:25:53;16.83;;;14.18;;
16662;SDS011;8445;51.270;9.434;2024-02-15T06:29:03;14.90;;;13.23;;
16662;SDS011;8445;51.270;9.434;2024-02-15T06:31:48;16.65;;;14.43;;
16662;SDS011;8445;51.270;9.434;2024-02-15T06:34:34;19.48;;;13.68;;
16662;SDS011;8445;51.270;9.434;2024-02-15T06:37:35;21.40;;;15.18;;
16662;SDS011;8445;51.270;9.434;2024-02-15T06:40:21;19.30;;;14.43;;
16662;SDS011;8445;51.270;9.434;2024-02-15T06:42:48;16.67;;;13.77;;
16662;SDS011;8445;51.270;9.434;2024-02-15T06:45:14;17.67;;;13.98;;
16662;SDS011;8445;51.270;9.434;2024-02-15T06:47:42;20.63;;;14.20;;
16662;SDS011;8445;51.270;9.434;2024-02-15T06:50:15;17.75;;;14.00;;
16662;SDS011;8445;51.270;9.434;2024-02-15T06:52:42;16.33;;;14.27;;
16662;SDS011;8445;51.270;9.434;2024-02-15T06:55:09;19.75;;;14.55;;
16662;SDS011;8445;51.270;9.434;2024-02-15T06:57:39;21.23;;;15.25;;
16662;SDS011;8445;51.270;9.434;2024-02-15T07:00:06;17.50;;;13.60;;
16662;SDS011;8445;51.270;9.434;2024-02-15T07:02:39;15.18;;;13.25;;
16662;SDS011;8445;51.270;9.434;2024-02-15T07:05:06;23.13;;;14.18;;
16662;SDS011;8445;51.270;9.434;2024-02-15T07:07:32;14.73;;;13.30;;
16662;SDS011;8445;51.270;9.434;2024-02-15T07:09:59;17.80;;;13.43;;
16662;SDS011;8445;51.270;9.434;2024-02-15T07:12:28;15.65;;;13.75;;
16662;SDS011;8445;51.270;9.434;2024-02-15T07:14:53;16.48;;;13.63;;
16662;SDS011;8445;51.270;9.434;2024-02-15T07:17:20;18.75;;;14.57;;
16662;SDS011;8445;51.270;9.434;2024-02-15T07:19:46;18.90;;;13.70;;
16662;SDS011;8445;51.270;9.434;2024-02-15T07:22:17;20.75;;;14.50;;
16662;SDS011;8445;51.270;9.434;2024-02-15T07:24:43;17.10;;;13.30;;
16662;SDS011;8445;51.270;9.434;2024-02-15T07:27:09;18.40;;;13.82;;
16662;SDS011;8445;51.270;9.434;2024-02-15T07:29:37;18.45;;;14.27;;
16662;SDS011;8445;51.270;9.434;2024-02-15T07:32:04;19.15;;;14.10;;
16662;SDS011;8445;51.270;9.434;2024-02-15T07:34:30;22.20;;;14.20;;
16662;SDS011;8445;51.270;9.434;2024-02-15T07:36:56;17.20;;;14.77;;
16662;SDS011;8445;51.270;9.434;2024-02-15T07:39:25;17.27;;;14.52;;
16662;SDS011;8445;51.270;9.434;2024-02-15T07:41:56;24.55;;;15.40;;
16662;SDS011;8445;51.270;9.434;2024-02-15T07:44:25;22.30;;;16.52;;
16662;SDS011;8445;51.270;9.434;2024-02-15T07:46:55;20.10;;;14.52;;
16662;SDS011;8445;51.270;9.434;2024-02-15T07:49:20;17.33;;;14.70;;
16662;SDS011;8445;51.270;9.434;2024-02-15T07:51:47;16.75;;;14.90;;
16662;SDS011;8445;51.270;9.434;2024-02-15T07:54:18;23.02;;;14.10;;
16662;SDS011;8445;51.270;9.434;2024-02-15T07:56:48;15.35;;;13.75;;
16662;SDS011;8445;51.270;9.434;2024-02-15T07:59:15;16.38;;;13.65;;
16662;SDS011;8445;51.270;9.434;2024-02-15T08:01:44;14.90;;;12.93;;
16662;SDS011;8445;51.270;9.434;2024-02-15T08:04:12;16.40;;;13.25;;
16662;SDS011;8445;51.270;9.434;2024-02-15T08:06:38;14.88;;;12.32;;
16662;SDS011;8445;51.270;9.434;2024-02-15T08:09:04;14.77;;;12.68;;
16662;SDS011;8445;51.270;9.434;2024-02-15T08:11:30;13.77;;;12.38;;
16662;SDS011;8445;51.270;9.434;2024-02-15T08:13:56;19.92;;;12.95;;
16662;SDS011;8445;51.270;9.434;2024-02-15T08:16:24;15.43;;;11.95;;
16662;SDS011;8445;51.270;9.434;2024-02-15T08:18:54;19.08;;;13.30;;
16662;SDS011;8445;51.270;9.434;2024-02-15T08:21:26;15.82;;;12.52;;
16662;SDS011;8445;51.270;9.434;2024-02-15T08:23:54;16.48;;;12.43;;
16662;SDS011;8445;51.270;9.434;2024-02-15T08:26:21;15.43;;;12.07;;
16662;SDS011;8445;51.270;9.434;2024-02-15T08:28:47;15.35;;;12.48;;
16662;SDS011;8445;51.270;9.434;2024-02-15T08:31:13;15.68;;;12.48;;
16662;SDS011;8445;51.270;9.434;2024-02-15T08:33:42;18.77;;;12.20;;
16662;SDS011;8445;51.270;9.434;2024-02-15T08:36:11;14.95;;;11.88;;
16662;SDS011;8445;51.270;9.434;2024-02-15T08:38:39;11.70;;;10.50;;
16662;SDS011;8445;51.270;9.434;2024-02-15T08:41:06;14.75;;;11.45;;
16662;SDS011;8445;51.270;9.434;2024-02-15T08:43:33;13.15;;;11.45;;
16662;SDS011;8445;51.270;9.434;2024-02-15T08:45:59;13.80;;;12.38;;
16662;SDS011;8445;51.270;9.434;2024-02-15T08:48:26;15.32;;;12.55;;
16662;SDS011;8445;51.270;9.434;2024-02-15T08:50:52;12.52;;;11.18;;
16662;SDS011;8445;51.270;9.434;2024-02-15T08:53:18;13.10;;;11.77;;
16662;SDS011;8445;51.270;9.434;2024-02-15T08:55:45;12.68;;;11.38;;
16662;SDS011;8445;51.270;9.434;2024-02-15T08:58:11;14.40;;;11.32;;
16662;SDS011;8445;51.270;9.434;2024-02-15T09:00:37;12.95;;;10.95;;
16662;SDS011;8445;51.270;9.434;2024-02-15T09:03:09;13.75;;;10.80;;
16662;SDS011;8445;51.270;9.434;2024-02-15T09:05:36;13.27;;;10.95;;
16662;SDS011;8445;51.270;9.434;2024-02-15T09:08:05;13.25;;;10.80;;
16662;SDS011;8445;51.270;9.434;2024-02-15T09:10:33;13.85;;;10.82;;
16662;SDS011;8445;51.270;9.434;2024-02-15T09:13:01;13.75;;;9.73;;
16662;SDS011;8445;51.270;9.434;2024-02-15T09:15:27;11.63;;;10.48;;
16662;SDS011;8445;51.270;9.434;2024-02-15T09:17:56;12.98;;;11.45;;
16662;SDS011;8445;51.270;9.434;2024-02-15T09:20:23;16.33;;;11.00;;
16662;SDS011;8445;51.270;9.434;2024-02-15T09:22:53;15.18;;;10.98;;
16662;SDS011;8445;51.270;9.434;2024-02-15T09:25:21;11.45;;;10.32;;
16662;SDS011;8445;51.270;9.434;2024-02-15T09:27:48;12.23;;;10.95;;
16662;SDS011;8445;51.270;9.434;2024-02-15T09:30:16;11.55;;;10.27;;
16662;SDS011;8445;51.270;9.434;2024-02-15T09:32:43;14.02;;;10.75;;
16662;SDS011;8445;51.270;9.434;2024-02-15T09:35:10;12.38;;;10.95;;
16662;SDS011;8445;51.270;9.434;2024-02-15T09:37:38;11.98;;;10.73;;
16662;SDS011;8445;51.270;9.434;2024-02-15T09:40:10;13.77;;;10.88;;
16662;SDS011;8445;51.270;9.434;2024-02-15T09:42:37;15.13;;;10.80;;
16662;SDS011;8445;51.270;9.434;2024-02-15T09:45:07;13.15;;;10.18;;
16662;SDS011;8445;51.270;9.434;2024-02-15T09:47:41;11.82;;;10.65;;
16662;SDS011;8445;51.270;9.434;2024-02-15T09:50:08;13.05;;;11.07;;
16662;SDS011;8445;51.270;9.434;2024-02-15T09:52:39;11.15;;;9.95;;
16662;SDS011;8445;51.270;9.434;2024-02-15T09:55:09;13.75;;;10.65;;
16662;SDS011;8445;51.270;9.434;2024-02-15T09:57:47;13.10;;;10.13;;
16662;SDS011;8445;51.270;9.434;2024-02-15T10:00:13;10.63;;;9.60;;
16662;SDS011;8445;51.270;9.434;2024-02-15T10:02:42;12.23;;;9.68;;
16662;SDS011;8445;51.270;9.434;2024-02-15T10:05:13;10.93;;;9.85;;
16662;SDS011;8445;51.270;9.434;2024-02-15T10:10:15;10.57;;;9.18;;
16662;SDS011;8445;51.270;9.434;2024-02-15T10:12:51;11.95;;;9.48;;
16662;SDS011;8445;51.270;9.434;2024-02-15T10:15:34;10.52;;;9.50;;
16662;SDS011;8445;51.270;9.434;2024-02-15T10:18:03;10.43;;;9.40;;
16662;SDS011;8445;51.270;9.434;2024-02-15T10:20:34;11.50;;;9.90;;
16662;SDS011;8445;51.270;9.434;2024-02-15T10:25:34;10.30;;;8.95;;
16662;SDS011;8445;51.270;9.434;2024-02-15T10:28:05;10.48;;;8.00;;
16662;SDS011;8445;51.270;9.434;2024-02-15T10:30:37;9.68;;;8.38;;
16662;SDS011;8445;51.270;9.434;2024-02-15T10:33:09;9.48;;;8.27;;
16662;SDS011;8445;51.270;9.434;2024-02-15T10:35:35;10.27;;;9.27;;
16662;SDS011;8445;51.270;9.434;2024-02-15T10:40:39;11.57;;;8.93;;
16662;SDS011;8445;51.270;9.434;2024-02-15T10:43:07;8.18;;;7.35;;
16662;SDS011;8445;51.270;9.434;2024-02-15T10:45:38;9.82;;;8.80;;
16662;SDS011;8445;51.270;9.434;2024-02-15T10:48:07;10.50;;;8.13;;
16662;SDS011;8445;51.270;9.434;2024-02-15T10:50:34;9.18;;;8.25;;
16662;SDS011;8445;51.270;9.434;2024-02-15T10:53:03;9.50;;;8.50;;
16662;SDS011;8445;51.270;9.434;2024-02-15T10:56:12;7.78;;;7.07;;
16662;SDS011;8445;51.270;9.434;2024-02-15T10:58:49;9.57;;;7.25;;
16662;SDS011;8445;51.270;9.434;2024-02-15T11:01:25;11.73;;;7.88;;
16662;SDS011;8445;51.270;9.434;2024-02-15T11:03:59;8.55;;;7.70;;
16662;SDS011;8445;51.270;9.434;2024-02-15T11:06:33;7.88;;;7.18;;
16662;SDS011;8445;51.270;9.434;2024-02-15T11:09:06;10.25;;;7.63;;
16662;SDS011;8445;51.270;9.434;2024-02-15T11:11:36;9.25;;;7.32;;
16662;SDS011;8445;51.270;9.434;2024-02-15T11:17:00;9.65;;;7.32;;
16662;SDS011;8445;51.270;9.434;2024-02-15T11:22:13;9.73;;;7.18;;
16662;SDS011;8445;51.270;9.434;2024-02-15T11:24:47;7.38;;;6.70;;
16662;SDS011;8445;51.270;9.434;2024-02-15T11:27:26;6.65;;;6.15;;
16662;SDS011;8445;51.270;9.434;2024-02-15T11:32:41;10.32;;;7.10;;
16662;SDS011;8445;51.270;9.434;2024-02-15T11:35:12;12.43;;;7.00;;
16662;SDS011;8445;51.270;9.434;2024-02-15T11:40:18;14.02;;;7.85;;
16662;SDS011;8445;51.270;9.434;2024-02-15T11:42:57;8.63;;;7.00;;
16662;SDS011;8445;51.270;9.434;2024-02-15T11:45:26;9.63;;;8.27;;
16662;SDS011;8445;51.270;9.434;2024-02-15T11:48:09;7.78;;;6.60;;
16662;SDS011;8445;51.270;9.434;2024-02-15T11:50:38;8.15;;;7.30;;
16662;SDS011;8445;51.270;9.434;2024-02-15T11:53:05;7.65;;;7.03;;
16662;SDS011;8445;51.270;9.434;2024-02-15T11:55:36;10.80;;;7.15;;
16662;SDS011;8445;51.270;9.434;2024-02-15T11:58:03;7.13;;;6.53;;
16662;SDS011;8445;51.270;9.434;2024-02-15T12:00:43;13.57;;;7.10;;
16662;SDS011;8445;51.270;9.434;2024-02-15T12:03:45;8.32;;;6.63;;
16662;SDS011;8445;51.270;9.434;2024-02-15T12:06:42;10.07;;;7.13;;
16662;SDS011;8445;51.270;9.434;2024-02-15T12:09:27;8.45;;;6.32;;
16662;SDS011;8445;51.270;9.434;2024-02-15T12:12:13;7.22;;;6.47;;
16662;SDS011;8445;51.270;9.434;2024-02-15T12:15:01;9.35;;;6.65;;
16662;SDS011;8445;51.270;9.434;2024-02-15T12:17:48;12.88;;;7.00;;
16662;SDS011;8445;51.270;9.434;2024-02-15T12:20:35;7.00;;;6.35;;
16662;SDS011;8445;51.270;9.434;2024-02-15T12:23:02;7.40;;;6.70;;
16662;SDS011;8445;51.270;9.434;2024-02-15T12:25:32;13.93;;;6.78;;
16662;SDS011;8445;51.270;9.434;2024-02-15T12:27:58;8.43;;;6.43;;
16662;SDS011;8445;51.270;9.434;2024-02-15T12:30:26;10.50;;;6.75;;
16662;SDS011;8445;51.270;9.434;2024-02-15T12:33:09;9.85;;;8.32;;
16662;SDS011;8445;51.270;9.434;2024-02-15T12:35:37;7.70;;;6.65;;
16662;SDS011;8445;51.270;9.434;2024-02-15T12:38:03;8.43;;;5.72;;
16662;SDS011;8445;51.270;9.434;2024-02-15T12:40:35;6.22;;;5.72;;
16662;SDS011;8445;51.270;9.434;2024-02-15T12:43:07;8.88;;;6.30;;
16662;SDS011;8445;51.270;9.434;2024-02-15T12:45:36;10.18;;;5.97;;
16662;SDS011;8445;51.270;9.434;2024-02-15T12:48:05;11.10;;;5.70;;
16662;SDS011;8445;51.270;9.434;2024-02-15T12:50:40;8.98;;;5.82;;
16662;SDS011;8445;51.270;9.434;2024-02-15T12:53:07;6.05;;;5.55;;
16662;SDS011;8445;51.270;9.434;2024-02-15T12:55:34;7.93;;;5.22;;
16662;SDS011;8445;51.270;9.434;2024-02-15T12:58:03;9.15;;;5.80;;
16662;SDS011;8445;51.270;9.434;2024-02-15T13:00:33;6.68;;;5.43;;
16662;SDS011;8445;51.270;9.434;2024-02-15T13:03:04;6.40;;;5.75;;
16662;SDS011;8445;51.270;9.434;2024-02-15T13:05:34;7.97;;;5.60;;
16662;SDS011;8445;51.270;9.434;2024-02-15T13:08:03;7.93;;;5.43;;
16662;SDS011;8445;51.270;9.434;2024-02-15T13:10:34;6.78;;;5.80;;
16662;SDS011;8445;51.270;9.434;2024-02-15T13:13:01;6.05;;;5.45;;
16662;SDS011;8445;51.270;9.434;2024-02-15T13:15:27;7.43;;;5.38;;
16662;SDS011;8445;51.270;9.434;2024-02-15T13:17:58;5.70;;;5.20;;
16662;SDS011;8445;51.270;9.434;2024-02-15T13:20:25;9.20;;;5.70;;
16662;SDS011;8445;51.270;9.434;2024-02-15T13:22:59;5.88;;;5.20;;
16662;SDS011;8445;51.270;9.434;2024-02-15T13:25:37;6.03;;;5.45;;
16662;SDS011;8445;51.270;9.434;2024-02-15T13:28:08;8.90;;;5.18;;
16662;SDS011;8445;51.270;9.434;2024-02-15T13:30:39;5.63;;;5.20;;
16662;SDS011;8445;51.270;9.434;2024-02-15T13:33:20;6.32;;;5.32;;
16662;SDS011;8445;51.270;9.434;2024-02-15T13:35:47;8.95;;;5.13;;
16662;SDS011;8445;51.270;9.434;2024-02-15T13:38:27;9.00;;;6.13;;
16662;SDS011;8445;51.270;9.434;2024-02-15T13:40:58;7.55;;;6.68;;
16662;SDS011;8445;51.270;9.434;2024-02-15T13:43:29;7.82;;;6.40;;
16662;SDS011;8445;51.270;9.434;2024-02-15T13:46:01;6.68;;;5.82;;
16662;SDS011;8445;51.270;9.434;2024-02-15T13:48:30;7.00;;;5.75;;
16662;SDS011;8445;51.270;9.434;2024-02-15T13:50:57;7.28;;;6.32;;
16662;SDS011;8445;51.270;9.434;2024-02-15T13:53:24;6.45;;;5.85;;
16662;SDS011;8445;51.270;9.434;2024-02-15T13:55:52;9.20;;;5.50;;
16662;SDS011;8445;51.270;9.434;2024-02-15T13:58:18;7.75;;;5.80;;
16662;SDS011;8445;51.270;9.434;2024-02-15T14:00:46;6.40;;;5.65;;
16662;SDS011;8445;51.270;9.434;2024-02-15T14:03:18;7.32;;;5.90;;
16662;SDS011;8445;51.270;9.434;2024-02-15T14:05:47;8.02;;;6.45;;
16662;SDS011;8445;51.270;9.434;2024-02-15T14:08:21;8.52;;;5.90;;
16662;SDS011;8445;51.270;9.434;2024-02-15T14:10:47;14.32;;;10.30;;
16662;SDS011;8445;51.270;9.434;2024-02-15T14:13:13;6.65;;;5.72;;
16662;SDS011;8445;51.270;9.434;2024-02-15T14:15:48;9.55;;;5.85;;
16662;SDS011;8445;51.270;9.434;2024-02-15T14:18:16;10.23;;;6.85;;
16662;SDS011;8445;51.270;9.434;2024-02-15T14:20:48;5.68;;;4.43;;
16662;SDS011;8445;51.270;9.434;2024-02-15T14:23:14;6.22;;;5.30;;
16662;SDS011;8445;51.270;9.434;2024-02-15T14:25:44;10.25;;;6.47;;
16662;SDS011;8445;51.270;9.434;2024-02-15T14:28:10;7.50;;;5.65;;
16662;SDS011;8445;51.270;9.434;2024-02-15T14:30:39;8.38;;;5.90;;
16662;SDS011;8445;51.270;9.434;2024-02-15T14:33:25;6.50;;;5.30;;
16662;SDS011;8445;51.270;9.434;2024-02-15T14:35:52;6.22;;;5.30;;
16662;SDS011;8445;51.270;9.434;2024-02-15T14:38:25;7.30;;;5.25;;
16662;SDS011;8445;51.270;9.434;2024-02-15T14:40:51;7.47;;;5.10;;
16662;SDS011;8445;51.270;9.434;2024-02-15T14:43:25;6.40;;;5.80;;
16662;SDS011;8445;51.270;9.434;2024-02-15T14:45:54;7.05;;;5.65;;
16662;SDS011;8445;51.270;9.434;2024-02-15T14:48:26;5.63;;;5.13;;
16662;SDS011;8445;51.270;9.434;2024-02-15T14:51:05;10.88;;;6.65;;
16662;SDS011;8445;51.270;9.434;2024-02-15T14:53:45;9.05;;;5.55;;
16662;SDS011;8445;51.270;9.434;2024-02-15T14:56:24;8.00;;;6.00;;
16662;SDS011;8445;51.270;9.434;2024-02-15T14:58:51;6.45;;;5.85;;
16662;SDS011;8445;51.270;9.434;2024-02-15T15:01:19;6.82;;;5.82;;
16662;SDS011;8445;51.270;9.434;2024-02-15T15:03:54;6.13;;;5.45;;
16662;SDS011;8445;51.270;9.434;2024-02-15T15:06:29;7.82;;;5.63;;
16662;SDS011;8445;51.270;9.434;2024-02-15T15:09:15;9.77;;;6.00;;
16662;SDS011;8445;51.270;9.434;2024-02-15T15:12:01;8.13;;;6.97;;
16662;SDS011;8445;51.270;9.434;2024-02-15T15:14:50;8.90;;;6.07;;
16662;SDS011;8445;51.270;9.434;2024-02-15T15:17:19;8.77;;;5.72;;
16662;SDS011;8445;51.270;9.434;2024-02-15T15:19:53;6.38;;;5.18;;
16662;SDS011;8445;51.270;9.434;2024-02-15T15:22:21;7.85;;;5.70;;
16662;SDS011;8445;51.270;9.434;2024-02-15T15:24:50;7.18;;;5.10;;